Time;durP1;ratioP1;P1;durP2;ratioP2;P2;SDS_P1;SDS_P2;PMS_P1;PMS_P2;Temp;Humidity;BMP_temperature;BMP_pressure;BME280_temperature;BME280_humidity;BME280_pressure;Samples;Min_cycle;Max_cycle;Signal;HPM_P1;HPM_P2
2023/08/03 00:01:52;;;;;;;3.30;1.58;;;;;;;15.02;100.00;98889.22;6123405;23;20032;-69
2023/08/03 00:04:18;;;;;;;3.70;1.67;;;;;;;15.05;100.00;98900.41;6123650;23;20014;-69
2023/08/03 00:06:44;;;;;;;3.38;1.50;;;;;;;15.04;100.00;98906.66;6124718;23;20041;-69
2023/08/03 00:09:10;;;;;;;2.80;1.40;;;;;;;15.07;100.00;98903.00;6100470;23;20456;-70
2023/08/03 00:11:35;;;;;;;2.90;1.38;;;;;;;15.07;100.00;98895.09;6100302;23;20009;-69
2023/08/03 00:14:01;;;;;;;4.78;1.23;;;;;;;15.12;100.00;98907.97;6124380;23;20021;-68
2023/08/03 00:16:26;;;;;;;3.50;1.40;;;;;;;15.12;100.00;98910.63;6099916;23;20566;-69
2023/08/03 00:18:51;;;;;;;3.40;1.55;;;;;;;15.13;100.00;98907.88;6099201;23;20109;-69
2023/08/03 00:21:17;;;;;;;3.70;1.70;;;;;;;15.16;100.00;98909.50;6124934;23;20010;-69
2023/08/03 00:23:42;;;;;;;4.20;1.65;;;;;;;15.15;100.00;98903.34;6124984;23;20065;-69
2023/08/03 00:26:08;;;;;;;3.63;1.90;;;;;;;15.15;100.00;98916.53;6126207;23;20089;-69
2023/08/03 00:28:33;;;;;;;4.60;1.80;;;;;;;15.17;100.00;98908.53;6123279;23;20096;-69
2023/08/03 00:30:59;;;;;;;4.57;2.40;;;;;;;15.17;100.00;98919.94;6124691;23;20424;-69
2023/08/03 00:33:24;;;;;;;5.95;2.35;;;;;;;15.20;100.00;98926.81;6123255;23;20006;-69
2023/08/03 00:35:50;;;;;;;6.65;3.13;;;;;;;15.21;100.00;98926.72;6124626;23;20093;-70
2023/08/03 00:38:15;;;;;;;6.82;3.03;;;;;;;15.22;100.00;98940.75;6099171;23;20009;-69
2023/08/03 00:40:41;;;;;;;6.93;3.78;;;;;;;15.25;100.00;98945.84;6124708;23;20018;-69
2023/08/03 00:43:07;;;;;;;8.18;3.83;;;;;;;15.27;100.00;98951.03;6148711;23;20013;-69
2023/08/03 00:45:32;;;;;;;7.85;4.00;;;;;;;15.30;100.00;98956.13;6123729;23;20018;-69
2023/08/03 00:47:58;;;;;;;8.13;4.20;;;;;;;15.30;100.00;98967.53;6099225;23;20109;-69
2023/08/03 00:50:25;;;;;;;10.77;4.80;;;;;;;15.32;100.00;98970.91;6148406;23;20429;-69
2023/08/03 00:52:53;;;;;;;9.02;4.70;;;;;;;15.33;100.00;98972.63;6123782;23;20010;-69
2023/08/03 00:55:18;;;;;;;10.07;4.93;;;;;;;15.35;100.00;98975.16;6123504;23;20010;-69
2023/08/03 00:57:44;;;;;;;11.73;5.28;;;;;;;15.36;100.00;98987.44;6099779;23;20032;-69
2023/08/03 01:00:10;;;;;;;8.43;5.20;;;;;;;15.36;100.00;98992.72;6098555;23;20017;-68
2023/08/03 01:02:35;;;;;;;8.90;4.82;;;;;;;15.37;100.00;98995.25;6122826;23;20024;-69
2023/08/03 01:05:01;;;;;;;8.88;5.10;;;;;;;15.36;100.00;98993.53;6100107;23;20018;-69
2023/08/03 01:07:27;;;;;;;8.20;4.88;;;;;;;15.34;100.00;98984.88;6099479;23;20444;-69
2023/08/03 01:09:52;;;;;;;8.45;4.63;;;;;;;15.36;100.00;99000.63;6148822;23;20041;-69
2023/08/03 01:12:18;;;;;;;5.93;5.28;;;;;;;15.35;100.00;98997.13;6099242;23;20021;-68
2023/08/03 01:14:44;;;;;;;7.68;5.22;;;;;;;15.34;100.00;99010.41;6149106;23;20029;-69
2023/08/03 01:17:10;;;;;;;8.77;5.43;;;;;;;15.35;100.00;99022.66;6099055;23;20002;-69
2023/08/03 01:19:36;;;;;;;6.70;5.30;;;;;;;15.34;100.00;99029.75;6123980;23;20014;-69
2023/08/03 01:22:02;;;;;;;9.60;6.18;;;;;;;15.32;100.00;99028.97;6123651;23;20429;-70
2023/08/03 01:24:29;;;;;;;8.68;6.20;;;;;;;15.31;100.00;99034.34;6075644;23;20009;-70
2023/08/03 01:26:54;;;;;;;11.02;7.22;;;;;;;15.31;100.00;99037.81;6148761;23;20366;-71
2023/08/03 01:29:20;;;;;;;12.68;7.65;;;;;;;15.30;100.00;99036.16;6098796;23;20009;-71
2023/08/03 01:31:45;;;;;;;11.95;7.28;;;;;;;15.31;100.00;99037.00;6098942;23;20006;-71
2023/08/03 01:34:13;;;;;;;13.98;8.32;;;;;;;15.29;100.00;99065.28;6098542;23;20018;-71
2023/08/03 01:36:39;;;;;;;12.35;8.85;;;;;;;15.28;100.00;99037.19;6123741;23;20380;-71
2023/08/03 01:39:09;;;;;;;11.95;8.43;;;;;;;15.28;100.00;99045.09;6148376;23;20017;-71
2023/08/03 01:41:36;;;;;;;14.20;8.75;;;;;;;15.29;100.00;99052.06;6123827;23;20010;-71
2023/08/03 01:44:29;;;;;;;14.18;8.80;;;;;;;15.30;100.00;99057.25;6124065;23;20345;-71
2023/08/03 01:46:57;;;;;;;12.23;8.10;;;;;;;15.28;100.00;99053.84;6123648;23;20017;-71
2023/08/03 01:49:26;;;;;;;11.30;7.65;;;;;;;15.30;100.00;99061.66;6147737;23;20006;-70
2023/08/03 01:51:51;;;;;;;13.52;7.80;;;;;;;15.27;100.00;99053.94;6148588;23;20030;-71
2023/08/03 01:54:17;;;;;;;11.52;6.60;;;;;;;15.33;100.00;99067.63;6148956;23;20006;-71
2023/08/03 01:56:42;;;;;;;9.45;6.32;;;;;;;15.34;100.00;99061.41;6099935;23;20053;-71
2023/08/03 01:59:11;;;;;;;12.13;6.60;;;;;;;15.32;100.00;99057.16;6099700;23;20323;-71
2023/08/03 02:01:37;;;;;;;7.97;5.28;;;;;;;15.35;100.00;99067.53;6123561;23;20014;-71
2023/08/03 02:04:02;;;;;;;10.80;5.70;;;;;;;15.33;100.00;99056.19;6098438;23;20070;-71
2023/08/03 02:06:30;;;;;;;11.05;5.13;;;;;;;15.34;100.00;99065.81;6123813;23;20188;-71
2023/08/03 02:08:56;;;;;;;11.65;4.82;;;;;;;15.31;100.00;99064.22;6123133;23;20318;-71
2023/08/03 02:11:22;;;;;;;7.97;3.80;;;;;;;15.34;100.00;99064.06;6123749;23;20016;-71
2023/08/03 02:13:47;;;;;;;7.82;3.45;;;;;;;15.36;100.00;99071.88;6099781;23;20013;-71
2023/08/03 02:16:14;;;;;;;8.23;3.33;;;;;;;15.35;100.00;99072.81;6099022;23;20429;-72
2023/08/03 02:18:40;;;;;;;9.52;3.03;;;;;;;15.34;100.00;99071.09;6147614;23;20032;-71
2023/08/03 02:21:06;;;;;;;6.53;2.63;;;;;;;15.35;100.00;99068.38;6123313;23;20367;-70
2023/08/03 02:23:32;;;;;;;7.57;3.08;;;;;;;15.36;100.00;99074.50;6099648;23;20389;-71
2023/08/03 02:25:58;;;;;;;8.68;4.00;;;;;;;15.38;100.00;99075.25;6148415;23;20009;-71
2023/08/03 02:28:24;;;;;;;7.72;3.28;;;;;;;15.38;100.00;99064.69;6123960;23;20141;-72
2023/08/03 02:30:49;;;;;;;9.07;3.90;;;;;;;15.36;100.00;99062.16;6074218;23;20068;-70
2023/08/03 02:33:15;;;;;;;10.52;4.15;;;;;;;15.35;100.00;99054.34;6123004;23;20014;-70
2023/08/03 02:35:40;;;;;;;11.77;4.47;;;;;;;15.33;100.00;99058.84;6124013;23;20021;-71
2023/08/03 02:38:06;;;;;;;12.05;4.50;;;;;;;15.33;100.00;99062.34;6099177;23;20094;-72
2023/08/03 02:40:32;;;;;;;15.23;5.65;;;;;;;15.31;100.00;99061.56;6123666;23;20450;-70
2023/08/03 02:42:57;;;;;;;12.10;4.95;;;;;;;15.30;100.00;99053.75;6123080;23;20022;-70
2023/08/03 02:45:23;;;;;;;14.02;5.55;;;;;;;15.30;100.00;99051.13;6123351;23;20013;-70
2023/08/03 02:47:48;;;;;;;15.15;5.35;;;;;;;15.29;100.00;99052.91;6122778;23;20192;-70
2023/08/03 02:50:14;;;;;;;15.60;6.22;;;;;;;15.29;100.00;99041.53;6098368;23;20009;-69
2023/08/03 02:52:39;;;;;;;16.05;6.00;;;;;;;15.30;100.00;99045.84;6123023;23;20036;-69
2023/08/03 02:55:05;;;;;;;14.15;5.35;;;;;;;15.30;100.00;99057.25;6122766;23;20009;-69
2023/08/03 02:57:30;;;;;;;14.27;5.80;;;;;;;15.30;100.00;99053.75;6123582;23;20013;-70
2023/08/03 02:59:56;;;;;;;14.90;5.90;;;;;;;15.28;100.00;99059.13;6099559;23;20045;-70
2023/08/03 03:02:21;;;;;;;16.65;5.65;;;;;;;15.28;100.00;99058.28;6121504;23;20040;-69
2023/08/03 03:04:47;;;;;;;15.88;5.57;;;;;;;15.27;100.00;99056.56;6147616;23;20320;-71
2023/08/03 03:07:12;;;;;;;18.88;6.00;;;;;;;15.26;100.00;99063.66;6098889;23;20018;-71
2023/08/03 03:09:38;;;;;;;19.02;5.70;;;;;;;15.26;100.00;99061.03;6123257;23;20014;-71
2023/08/03 03:12:03;;;;;;;14.20;5.43;;;;;;;15.25;100.00;99070.69;6122625;23;20341;-71
2023/08/03 03:14:29;;;;;;;13.30;5.25;;;;;;;15.26;100.00;99071.56;6098806;23;20661;-71
2023/08/03 03:16:54;;;;;;;13.95;4.70;;;;;;;15.23;100.00;99072.59;6100084;23;20010;-71
2023/08/03 03:19:20;;;;;;;18.40;5.78;;;;;;;15.23;100.00;99080.50;6148530;23;20018;-70
2023/08/03 03:21:45;;;;;;;15.20;4.85;;;;;;;15.22;100.00;99081.44;6124754;23;20022;-69
2023/08/03 03:24:11;;;;;;;21.25;5.20;;;;;;;15.22;100.00;99089.34;6124329;23;20009;-69
2023/08/03 03:26:36;;;;;;;16.67;5.00;;;;;;;15.24;100.00;99090.13;6125596;23;20016;-69
2023/08/03 03:29:02;;;;;;;11.50;4.35;;;;;;;15.22;100.00;99099.06;6125374;23;20014;-68
2023/08/03 03:31:27;;;;;;;14.25;5.10;;;;;;;15.22;100.00;99085.88;6100365;23;20464;-69
2023/08/03 03:33:53;;;;;;;13.43;5.00;;;;;;;15.21;100.00;99098.25;6123570;23;20092;-71
2023/08/03 03:36:18;;;;;;;14.30;4.63;;;;;;;15.19;100.00;99097.47;6100827;23;20021;-70
2023/08/03 03:38:44;;;;;;;15.52;4.55;;;;;;;15.18;100.00;99110.75;6149426;23;20017;-70
2023/08/03 03:41:09;;;;;;;13.98;4.38;;;;;;;15.16;100.00;99104.72;6149230;23;20021;-70
2023/08/03 03:43:34;;;;;;;11.98;4.47;;;;;;;15.16;100.00;99108.19;6100397;23;20450;-71
2023/08/03 03:46:02;;;;;;;14.90;5.03;;;;;;;15.11;100.00;99104.13;6124728;23;20014;-71
2023/08/03 03:48:27;;;;;;;10.63;4.25;;;;;;;15.13;100.00;99116.28;6124611;23;20044;-70
2023/08/03 03:50:53;;;;;;;11.10;4.10;;;;;;;15.11;100.00;99118.16;6124488;23;20096;-71
2023/08/03 03:53:52;;;;;;;11.35;3.97;;;;;;;15.13;100.00;99123.34;6099559;23;20018;-71
2023/08/03 03:56:50;;;;;;;11.97;4.63;;;;;;;15.13;100.00;99137.41;6017439;23;20006;-71
2023/08/03 03:59:45;;;;;;;10.70;3.95;;;;;;;15.10;100.00;99149.91;6062777;23;20419;-70
2023/08/03 04:02:41;;;;;;;9.38;3.67;;;;;;;15.10;100.00;99150.78;6019372;23;20014;-71
2023/08/03 04:05:19;;;;;;;12.10;4.13;;;;;;;15.08;100.00;99152.63;6041782;23;20014;-71
2023/08/03 04:11:31;;;;;;;9.45;3.55;;;;;;;15.11;100.00;99163.00;6065930;23;20354;-71
2023/08/03 04:14:11;;;;;;;7.35;3.20;;;;;;;15.08;100.00;99163.19;6041548;23;20118;-70
2023/08/03 04:17:03;;;;;;;11.38;4.35;;;;;;;15.05;100.00;99158.09;6036443;23;20007;-71
2023/08/03 04:19:40;;;;;;;9.57;3.58;;;;;;;15.06;100.00;99178.25;5924656;24;20081;-71
2023/08/03 04:22:05;;;;;;;8.02;3.78;;;;;;;15.06;100.00;99180.91;5901660;24;20021;-71
2023/08/03 04:24:31;;;;;;;9.00;3.47;;;;;;;15.06;100.00;99175.63;5925496;24;20032;-71
2023/08/03 04:26:58;;;;;;;11.07;4.07;;;;;;;15.06;100.00;99188.81;5901345;24;20493;-71
2023/08/03 04:29:23;;;;;;;9.23;3.55;;;;;;;15.09;100.00;99196.56;5900937;24;20115;-71
2023/08/03 04:31:48;;;;;;;10.70;4.20;;;;;;;15.11;100.00;99204.38;5900610;24;20016;-70
2023/08/03 04:34:14;;;;;;;7.03;3.45;;;;;;;15.13;100.00;99203.34;5899740;24;20519;-69
2023/08/03 04:36:39;;;;;;;10.20;3.83;;;;;;;15.12;100.00;99217.47;5902071;24;20543;-70
2023/08/03 04:39:05;;;;;;;7.38;3.72;;;;;;;15.10;100.00;99211.44;5901403;24;20041;-71
2023/08/03 04:41:31;;;;;;;7.22;3.00;;;;;;;15.09;100.00;99212.38;5924158;24;20024;-71
2023/08/03 04:43:56;;;;;;;4.82;2.05;;;;;;;15.09;100.00;99217.66;5927724;24;20351;-69
2023/08/03 04:46:22;;;;;;;5.90;1.77;;;;;;;15.11;100.00;99218.41;5954571;24;20072;-69
2023/08/03 04:48:47;;;;;;;4.55;1.98;;;;;;;15.14;100.00;99212.97;5988367;23;20039;-69
2023/08/03 04:51:13;;;;;;;6.53;2.35;;;;;;;15.13;100.00;99220.97;6028208;23;20013;-69
2023/08/03 04:53:38;;;;;;;5.55;2.58;;;;;;;15.15;100.00;99227.00;6098612;23;20010;-68
2023/08/03 04:56:05;;;;;;;8.27;3.33;;;;;;;15.15;100.00;99227.84;6051372;23;20068;-69
2023/08/03 04:58:31;;;;;;;5.13;2.45;;;;;;;15.17;100.00;99231.28;6052811;23;20081;-69
2023/08/03 05:00:56;;;;;;;5.63;2.10;;;;;;;15.17;100.00;99233.91;6075492;23;20046;-68
2023/08/03 05:03:21;;;;;;;4.20;2.15;;;;;;;15.18;100.00;99232.13;6074948;23;20006;-68
2023/08/03 05:05:47;;;;;;;5.88;2.35;;;;;;;15.18;100.00;99232.13;6074642;23;20018;-69
2023/08/03 05:08:12;;;;;;;5.53;2.70;;;;;;;15.18;100.00;99230.31;6099587;23;20021;-68
2023/08/03 05:10:38;;;;;;;5.50;2.30;;;;;;;15.17;100.00;99236.56;6075326;23;20496;-68
2023/08/03 05:13:03;;;;;;;4.35;2.33;;;;;;;15.14;100.00;99234.09;6051287;23;20124;-69
2023/08/03 05:15:28;;;;;;;7.85;2.67;;;;;;;15.15;100.00;99243.69;6051002;23;20043;-68
2023/08/03 05:17:54;;;;;;;4.57;2.20;;;;;;;15.08;100.00;99237.06;6099445;23;20026;-67
2023/08/03 05:20:23;;;;;;;4.53;2.08;;;;;;;15.17;100.00;99264.69;6075721;23;20348;-68
2023/08/03 05:22:48;;;;;;;5.47;2.17;;;;;;;15.17;100.00;99254.16;6124955;23;20286;-70
2023/08/03 05:25:16;;;;;;;5.28;2.00;;;;;;;15.17;100.00;99267.34;6133188;23;20009;-68
2023/08/03 05:27:41;;;;;;;6.10;2.08;;;;;;;15.19;100.00;99270.75;6128311;23;20016;-68
2023/08/03 05:30:07;;;;;;;5.68;2.40;;;;;;;15.18;100.00;99264.63;6105336;23;20012;-68
2023/08/03 06:09:21;;;;;;;8.25;2.05;;;;;;;15.56;100.00;99348.72;6191376;23;20021;-68
2023/08/03 06:11:46;;;;;;;6.05;2.22;;;;;;;15.48;100.00;99356.22;6155426;23;20013;-67
2023/08/03 06:14:15;;;;;;;7.57;2.55;;;;;;;15.49;100.00;99355.28;6105136;23;20009;-68
2023/08/03 06:20:12;;;;;;;6.53;2.40;;;;;;;15.54;100.00;99347.97;6155672;23;20012;-66
2023/08/03 06:22:37;;;;;;;6.57;2.03;;;;;;;15.62;100.00;99352.81;6153928;23;20012;-67
2023/08/03 06:25:08;;;;;;;5.93;2.38;;;;;;;15.80;100.00;99355.38;6105166;23;20013;-68
2023/08/03 06:27:33;;;;;;;9.35;2.50;;;;;;;15.85;100.00;99367.38;6153964;23;20002;-67
2023/08/03 06:29:59;;;;;;;10.10;2.20;;;;;;;15.84;100.00;99368.31;6104972;23;20014;-68
2023/08/03 06:32:28;;;;;;;9.65;2.63;;;;;;;15.98;100.00;99385.19;6129037;23;20010;-68
2023/08/03 06:34:55;;;;;;;9.95;2.53;;;;;;;16.10;100.00;99376.53;6153015;23;20010;-67
2023/08/03 06:37:21;;;;;;;10.07;2.25;;;;;;;16.33;100.00;99383.09;6128427;23;20016;-67
2023/08/03 06:39:50;;;;;;;8.68;2.20;;;;;;;16.31;100.00;99390.28;6152884;23;20009;-68
2023/08/03 06:42:15;;;;;;;7.45;1.98;;;;;;;16.31;100.00;99389.44;6128825;23;20006;-68
2023/08/03 06:44:40;;;;;;;7.78;2.22;;;;;;;16.22;100.00;99393.44;6128500;23;20080;-67
2023/08/03 06:47:07;;;;;;;7.95;2.10;;;;;;;16.15;100.00;99395.63;6102479;23;20409;-68
2023/08/03 06:49:32;;;;;;;6.03;1.67;;;;;;;16.08;100.00;99387.19;6101159;23;20423;-67
2023/08/03 06:51:58;;;;;;;7.40;2.03;;;;;;;16.10;100.00;99417.03;6102083;23;20016;-69
2023/08/03 06:54:23;;;;;;;7.43;1.85;;;;;;;16.11;100.00;99408.13;6104102;23;20069;-69
2023/08/03 06:56:49;;;;;;;6.95;1.90;;;;;;;16.08;100.00;99420.69;6103525;23;20006;-69
2023/08/03 06:59:20;;;;;;;9.27;2.00;;;;;;;16.03;100.00;99420.09;6152674;23;20013;-69
2023/08/03 07:01:47;;;;;;;8.15;2.10;;;;;;;16.05;100.00;99426.16;6128413;23;20059;-69
2023/08/03 07:04:12;;;;;;;7.55;2.00;;;;;;;15.98;100.00;99424.81;6127042;23;20071;-69
2023/08/03 07:06:38;;;;;;;10.27;2.38;;;;;;;15.99;100.00;99429.13;6128189;23;20041;-69
2023/08/03 07:09:03;;;;;;;7.72;2.30;;;;;;;16.02;100.00;99435.09;6127320;23;20018;-69
2023/08/03 07:11:31;;;;;;;8.25;2.08;;;;;;;16.05;100.00;99428.81;6103960;23;20335;-69
2023/08/03 07:13:56;;;;;;;9.00;2.05;;;;;;;16.14;100.00;99430.91;6153143;23;20036;-69
2023/08/03 07:16:23;;;;;;;6.30;1.80;;;;;;;16.35;100.00;99438.53;6103737;23;20013;-70
2023/08/03 07:18:48;;;;;;;6.00;2.35;;;;;;;16.40;100.00;99445.25;6101697;23;20014;-72
2023/08/03 07:21:14;;;;;;;9.82;1.83;;;;;;;16.40;100.00;99449.69;6102540;23;20519;-72
2023/08/03 07:23:39;;;;;;;5.80;1.70;;;;;;;16.39;100.00;99450.63;6125200;23;20376;-72
2023/08/03 07:26:14;;;;;;;6.20;1.85;;;;;;;16.42;100.00;99450.44;6127923;23;20009;-72
2023/08/03 07:28:39;;;;;;;8.38;1.92;;;;;;;16.40;100.00;99453.19;6152539;23;20434;-72
2023/08/03 07:31:05;;;;;;;5.32;1.60;;;;;;;16.39;100.00;99458.56;6103690;23;20009;-72
2023/08/03 07:33:30;;;;;;;9.73;2.00;;;;;;;16.31;99.92;99452.88;6126519;23;20010;-72
2023/08/03 07:35:56;;;;;;;6.30;1.90;;;;;;;16.30;100.00;99467.03;6126611;23;20017;-72
2023/08/03 07:38:21;;;;;;;5.63;1.80;;;;;;;16.26;99.89;99459.28;6127065;23;20097;-72
2023/08/03 07:40:47;;;;;;;6.93;1.77;;;;;;;16.27;100.00;99468.91;6151914;23;20013;-71
2023/08/03 07:43:12;;;;;;;9.23;2.65;;;;;;;16.25;99.78;99462.84;6103778;23;20350;-71
2023/08/03 07:45:38;;;;;;;7.80;1.90;;;;;;;16.24;100.00;99477.00;6127233;23;20383;-72
2023/08/03 07:48:04;;;;;;;8.77;2.22;;;;;;;16.21;100.00;99471.91;6125637;23;20012;-71
2023/08/03 07:50:30;;;;;;;7.45;2.20;;;;;;;16.27;100.00;99489.19;6127329;23;20134;-71
2023/08/03 07:52:55;;;;;;;7.05;2.00;;;;;;;16.30;100.00;99480.25;6128193;23;20033;-69
2023/08/03 07:55:20;;;;;;;8.75;2.40;;;;;;;16.26;100.00;99491.00;6128104;23;20014;-69
2023/08/03 07:57:46;;;;;;;8.27;1.90;;;;;;;16.26;100.00;99490.13;6152165;23;20032;-69
2023/08/03 08:00:12;;;;;;;10.30;2.40;;;;;;;16.28;100.00;99499.69;6128274;23;20104;-69
2023/08/03 08:02:37;;;;;;;7.00;2.00;;;;;;;16.30;100.00;99501.41;6102744;23;20006;-69
2023/08/03 08:05:03;;;;;;;8.85;2.30;;;;;;;16.27;100.00;99508.53;6105718;23;20009;-69
2023/08/03 08:07:29;;;;;;;7.75;2.30;;;;;;;16.26;100.00;99525.38;6104695;23;20088;-69
2023/08/03 08:09:54;;;;;;;6.20;1.95;;;;;;;16.22;100.00;99534.41;6126934;23;20356;-69
2023/08/03 08:12:19;;;;;;;6.25;2.17;;;;;;;16.18;100.00;99519.66;6127410;23;20017;-69
2023/08/03 08:14:45;;;;;;;6.82;2.10;;;;;;;16.13;100.00;99536.69;6105126;23;20020;-68
2023/08/03 08:17:10;;;;;;;8.18;2.05;;;;;;;16.13;100.00;99540.19;6128512;23;20163;-68
2023/08/03 08:19:36;;;;;;;10.10;2.13;;;;;;;16.13;100.00;99540.19;6104668;23;20037;-68
2023/08/03 08:22:01;;;;;;;7.95;1.90;;;;;;;16.21;100.00;99530.03;6103414;23;20062;-68
2023/08/03 08:24:27;;;;;;;7.68;1.80;;;;;;;16.23;100.00;99541.41;6102668;23;20021;-68
2023/08/03 08:26:53;;;;;;;8.05;2.50;;;;;;;16.27;100.00;99557.91;6129728;23;20010;-67
2023/08/03 08:29:19;;;;;;;6.45;1.98;;;;;;;16.28;100.00;99568.41;6129315;23;20013;-68
2023/08/03 08:31:45;;;;;;;6.07;1.88;;;;;;;16.29;100.00;99571.88;6128282;23;20521;-69
2023/08/03 08:34:10;;;;;;;7.68;2.10;;;;;;;16.24;100.00;99572.16;6126908;23;20052;-69
2023/08/03 08:36:35;;;;;;;7.65;1.83;;;;;;;16.25;100.00;99573.88;6104292;23;20095;-72
2023/08/03 08:39:01;;;;;;;6.68;2.00;;;;;;;16.25;100.00;99581.81;6153775;23;20379;-72
2023/08/03 08:41:26;;;;;;;8.25;2.38;;;;;;;16.24;100.00;99585.38;6128138;23;20445;-71
2023/08/03 08:43:52;;;;;;;8.40;1.90;;;;;;;16.19;100.00;99589.19;6128681;23;20140;-71
2023/08/03 08:46:17;;;;;;;7.93;2.15;;;;;;;16.16;100.00;99592.91;6128588;23;20016;-72
2023/08/03 08:48:43;;;;;;;6.65;1.80;;;;;;;16.16;100.00;99595.53;6104295;23;20040;-72
2023/08/03 08:51:10;;;;;;;7.50;1.95;;;;;;;16.15;100.00;99608.81;6104518;23;20005;-72
2023/08/03 08:53:35;;;;;;;10.18;2.58;;;;;;;16.14;100.00;99604.47;6152246;23;20016;-72
2023/08/03 08:56:01;;;;;;;6.32;1.95;;;;;;;16.13;100.00;99608.06;6105071;23;20013;-72
2023/08/03 08:58:27;;;;;;;7.05;2.10;;;;;;;16.17;100.00;99617.53;6104080;23;20021;-71
2023/08/03 09:01:01;;;;;;;4.88;1.60;;;;;;;16.16;100.00;99624.59;6127619;23;20100;-72
2023/08/03 09:03:26;;;;;;;6.68;1.92;;;;;;;16.17;100.00;99623.66;6128116;23;20013;-72
2023/08/03 09:05:59;;;;;;;6.13;1.90;;;;;;;16.20;100.00;99634.03;6129108;23;20443;-71
2023/08/03 09:08:26;;;;;;;6.38;2.30;;;;;;;16.22;100.00;99642.75;6103374;23;20006;-70
2023/08/03 09:10:55;;;;;;;5.35;1.70;;;;;;;16.25;100.00;99653.16;6151960;23;20115;-70
2023/08/03 09:13:32;;;;;;;6.35;1.92;;;;;;;16.27;100.00;99653.91;6128292;23;20010;-70
2023/08/03 09:15:59;;;;;;;6.13;1.65;;;;;;;16.33;100.00;99660.66;6152469;23;20084;-70
2023/08/03 09:18:27;;;;;;;9.10;2.00;;;;;;;16.36;100.00;99668.44;6151778;23;20009;-71
2023/08/03 09:21:15;;;;;;;7.63;1.77;;;;;;;16.42;100.00;99665.47;6128749;23;20020;-70
2023/08/03 09:23:41;;;;;;;4.53;1.33;;;;;;;16.50;100.00;99677.41;6153079;23;20009;-70
2023/08/03 09:26:07;;;;;;;4.35;1.13;;;;;;;16.59;100.00;99677.78;6129068;23;20009;-70
2023/08/03 09:28:38;;;;;;;4.72;1.58;;;;;;;16.80;100.00;99677.50;6152870;23;20495;-70
2023/08/03 09:31:04;;;;;;;6.15;1.75;;;;;;;17.07;100.00;99693.63;6152165;23;20013;-70
2023/08/03 09:33:30;;;;;;;4.07;1.60;;;;;;;17.20;100.00;99693.78;6102897;23;20359;-70
2023/08/03 09:36:13;;;;;;;4.30;1.73;;;;;;;17.51;100.00;99686.69;6128760;23;20017;-71
2023/08/03 09:38:47;;;;;;;5.63;1.67;;;;;;;17.63;99.40;99701.88;6151371;23;20009;-69
2023/08/03 09:41:13;;;;;;;4.18;1.42;;;;;;;17.85;98.68;99703.22;6106049;23;20498;-71
2023/08/03 09:43:40;;;;;;;5.13;1.63;;;;;;;17.95;97.20;99717.66;6153523;23;20010;-70
2023/08/03 09:46:06;;;;;;;3.22;1.50;;;;;;;18.15;99.16;99720.91;6128861;23;20017;-71
2023/08/03 09:48:32;;;;;;;7.43;2.05;;;;;;;18.20;97.50;99723.25;6151970;23;20459;-70
2023/08/03 09:50:59;;;;;;;5.13;1.65;;;;;;;18.25;95.83;99731.81;6152576;23;20435;-70
2023/08/03 09:53:36;;;;;;;6.65;1.67;;;;;;;18.23;96.51;99734.56;6128477;23;20343;-70
2023/08/03 09:56:03;;;;;;;5.00;1.65;;;;;;;18.06;95.49;99742.66;6153198;23;20396;-70
2023/08/03 09:58:52;;;;;;;7.00;2.25;;;;;;;18.00;95.50;99751.81;6153310;23;20009;-70
2023/08/03 10:01:26;;;;;;;6.72;2.08;;;;;;;17.83;96.47;99761.63;6152915;23;20522;-70
2023/08/03 10:03:58;;;;;;;7.82;2.25;;;;;;;17.72;96.91;99764.03;6152121;23;20084;-70
2023/08/03 10:06:32;;;;;;;9.20;2.42;;;;;;;17.72;97.81;99758.75;6152723;23;20017;-70
2023/08/03 10:09:03;;;;;;;6.38;2.20;;;;;;;17.65;97.34;99768.00;6128736;23;20356;-69
2023/08/03 10:11:33;;;;;;;8.50;2.40;;;;;;;17.70;97.97;99776.53;6151971;23;20075;-71
2023/08/03 10:14:03;;;;;;;9.07;2.88;;;;;;;17.70;97.30;99780.97;6151522;23;20088;-70
2023/08/03 10:16:31;;;;;;;9.95;2.38;;;;;;;17.75;97.48;99785.06;6126361;23;20009;-70
2023/08/03 10:18:57;;;;;;;8.02;2.72;;;;;;;17.84;98.37;99788.97;6128315;23;20024;-70
2023/08/03 10:21:23;;;;;;;10.00;2.90;;;;;;;17.84;96.77;99796.91;6104537;23;20010;-70
2023/08/03 10:24:07;;;;;;;10.43;2.60;;;;;;;18.14;99.61;99794.25;6153415;23;20479;-70
2023/08/03 10:26:32;;;;;;;9.93;2.63;;;;;;;18.17;95.51;99795.88;6151705;23;20016;-69
2023/08/03 10:28:58;;;;;;;11.07;2.85;;;;;;;18.11;94.17;99797.09;6102540;23;20092;-70
2023/08/03 10:31:23;;;;;;;12.02;2.65;;;;;;;18.43;97.25;99789.03;6102660;23;20016;-70
2023/08/03 10:33:49;;;;;;;7.90;2.47;;;;;;;18.57;95.75;99787.31;6126636;23;20013;-70
2023/08/03 10:39:04;;;;;;;7.72;2.38;;;;;;;18.70;94.55;99793.53;6154128;23;20080;-70
2023/08/03 10:41:40;;;;;;;10.73;2.75;;;;;;;18.62;93.39;99804.66;6152246;23;20029;-70
2023/08/03 10:44:14;;;;;;;10.25;2.53;;;;;;;18.84;95.27;99800.66;6151135;23;20006;-70
2023/08/03 10:46:49;;;;;;;8.68;2.50;;;;;;;18.98;96.60;99813.94;6151985;23;20455;-70
2023/08/03 10:49:17;;;;;;;8.15;2.30;;;;;;;19.12;93.67;99817.50;6150959;23;20428;-70
2023/08/03 10:51:43;;;;;;;6.57;2.13;;;;;;;19.27;92.95;99815.69;6151968;23;20009;-70
2023/08/03 10:54:09;;;;;;;7.55;2.10;;;;;;;19.47;93.66;99831.19;6127432;23;20009;-70
2023/08/03 10:56:34;;;;;;;9.45;2.30;;;;;;;19.67;95.50;99831.69;6102654;23;20013;-70
2023/08/03 10:59:03;;;;;;;8.25;2.40;;;;;;;19.82;92.34;99835.16;6103443;23;20088;-70
2023/08/03 11:01:28;;;;;;;7.97;2.28;;;;;;;20.11;92.91;99843.00;6154489;23;20016;-70
2023/08/03 11:03:54;;;;;;;8.73;2.30;;;;;;;20.08;90.07;99831.63;6150632;23;20044;-70
2023/08/03 11:06:21;;;;;;;5.65;2.22;;;;;;;20.12;85.53;99848.22;6128185;23;20009;-70
2023/08/03 11:08:47;;;;;;;8.98;2.00;;;;;;;20.25;85.49;99853.56;6102817;23;20020;-70
2023/08/03 11:11:13;;;;;;;9.68;1.98;;;;;;;20.40;87.63;99852.50;6127291;23;20009;-70
2023/08/03 11:13:44;;;;;;;8.15;2.30;;;;;;;20.31;86.44;99855.78;6101444;23;20021;-70
2023/08/03 11:16:15;;;;;;;4.78;1.88;;;;;;;20.46;85.97;99866.34;6152446;23;20076;-70
2023/08/03 11:18:47;;;;;;;6.47;1.88;;;;;;;20.55;85.46;99863.91;6153194;23;20036;-69
2023/08/03 11:21:12;;;;;;;7.43;2.53;;;;;;;20.29;83.27;99871.00;6103156;23;20024;-70
2023/08/03 11:23:38;;;;;;;6.95;2.10;;;;;;;20.21;84.47;99862.69;6103134;23;20014;-70
2023/08/03 11:26:06;;;;;;;6.70;2.10;;;;;;;20.01;83.62;99872.00;6128487;23;20088;-69
2023/08/03 11:28:58;;;;;;;7.00;2.13;;;;;;;19.78;86.16;99862.88;6126429;23;20432;-70
2023/08/03 11:31:24;;;;;;;7.97;2.22;;;;;;;19.34;88.72;99876.28;6145367;23;20005;-70
2023/08/03 11:33:54;;;;;;;7.32;2.22;;;;;;;19.26;88.54;99891.84;6101425;23;20012;-69
2023/08/03 11:36:20;;;;;;;;;;;;;;;19.51;88.80;99899.13;6152524;23;20143;-67
2023/08/03 11:38:46;;;;;;;9.65;2.45;;;;;;;19.27;91.20;99908.66;6128739;23;19915;-67
2023/08/03 11:41:13;;;;;;;5.32;2.03;;;;;;;19.19;90.75;99907.34;6154800;23;20005;-67
2023/08/03 11:43:39;;;;;;;7.15;2.30;;;;;;;19.16;92.00;99912.81;6104131;23;20064;-68
2023/08/03 11:46:04;;;;;;;5.85;2.20;;;;;;;19.08;92.61;99915.13;6128281;23;20009;-68
2023/08/03 11:48:30;;;;;;;7.35;2.85;;;;;;;19.06;94.22;99917.00;6152961;23;20004;-68
2023/08/03 11:50:56;;;;;;;6.05;2.30;;;;;;;18.83;92.80;99926.34;6154712;23;20017;-69
2023/08/03 11:53:26;;;;;;;7.88;2.75;;;;;;;18.69;94.79;99953.69;6104464;23;20014;-70
2023/08/03 11:55:52;;;;;;;6.18;2.60;;;;;;;18.45;94.99;99953.38;6153246;23;20455;-70
2023/08/03 11:58:27;;;;;;;5.40;2.20;;;;;;;18.29;97.19;99970.19;6103211;23;20444;-70
2023/08/03 12:01:01;;;;;;;6.85;2.63;;;;;;;18.26;97.30;99970.38;6153762;23;20002;-70
2023/08/03 12:03:32;;;;;;;5.72;2.08;;;;;;;18.25;97.51;99973.94;6153081;23;20009;-70
2023/08/03 12:06:05;;;;;;;5.20;2.00;;;;;;;18.10;97.79;99974.81;6130141;23;20037;-68
2023/08/03 12:08:43;;;;;;;5.80;1.60;;;;;;;18.09;97.53;99983.75;6130354;23;20076;-69
2023/08/03 12:11:09;;;;;;;5.40;1.65;;;;;;;18.02;96.92;99987.69;6154591;23;20026;-68
2023/08/03 12:13:35;;;;;;;3.67;1.35;;;;;;;17.96;98.24;99999.47;6153905;23;20010;-68